Terminal Aerodrome Forecast
Issued by NWS Caribou, ME

Home | Current Version | Previous Version | Text Only | Print | Product List | Glossary On
Versions: 1 2 3 4 5 6 7 8 9 10 11 12 13 14 15 16 17
000
FTUS41 KCAR 262333
TAFCAR
TAF
KCAR 262333Z 2700/2724 00000KT P6SM SCT250
     FM271100 13006KT 2SM -SN OVC030
     FM271300 13007KT 1SM -SN SCT007 OVC010
     FM271700 14010G18KT 1/2SM SN SCT003 OVC007=

USA.gov is the U.S. government's official web portal to all federal, state and local government web resources and services.